sensor_id;sensor_type;location;lat;lon;timestamp;P1;durP1;ratioP1;P2;durP2;ratioP2
22382;SDS011;11359;45.802;13.530;2022-10-17T00:01:33;4.70;;;4.20;;
22382;SDS011;11359;45.802;13.530;2022-10-17T00:03:58;4.63;;;3.85;;
22382;SDS011;11359;45.802;13.530;2022-10-17T00:06:24;4.50;;;4.10;;
22382;SDS011;11359;45.802;13.530;2022-10-17T00:08:50;4.93;;;4.22;;
22382;SDS011;11359;45.802;13.530;2022-10-17T00:11:17;4.35;;;3.67;;
22382;SDS011;11359;45.802;13.530;2022-10-17T00:13:45;4.40;;;4.00;;
22382;SDS011;11359;45.802;13.530;2022-10-17T00:16:11;4.88;;;4.32;;
22382;SDS011;11359;45.802;13.530;2022-10-17T00:18:37;4.57;;;3.97;;
22382;SDS011;11359;45.802;13.530;2022-10-17T00:21:03;4.28;;;3.88;;
22382;SDS011;11359;45.802;13.530;2022-10-17T00:23:29;4.85;;;4.15;;
22382;SDS011;11359;45.802;13.530;2022-10-17T00:26:01;4.00;;;3.60;;
22382;SDS011;11359;45.802;13.530;2022-10-17T00:28:29;4.97;;;4.47;;
22382;SDS011;11359;45.802;13.530;2022-10-17T00:30:58;4.88;;;4.07;;
22382;SDS011;11359;45.802;13.530;2022-10-17T00:33:26;4.75;;;4.35;;
22382;SDS011;11359;45.802;13.530;2022-10-17T00:36:06;4.75;;;4.18;;
22382;SDS011;11359;45.802;13.530;2022-10-17T00:38:37;4.40;;;4.00;;
22382;SDS011;11359;45.802;13.530;2022-10-17T00:41:04;4.20;;;3.75;;
22382;SDS011;11359;45.802;13.530;2022-10-17T00:43:47;3.97;;;3.58;;
22382;SDS011;11359;45.802;13.530;2022-10-17T00:46:16;4.78;;;4.10;;
22382;SDS011;11359;45.802;13.530;2022-10-17T00:48:42;5.45;;;4.32;;
22382;SDS011;11359;45.802;13.530;2022-10-17T00:51:09;4.60;;;4.10;;
22382;SDS011;11359;45.802;13.530;2022-10-17T00:53:36;5.53;;;4.65;;
22382;SDS011;11359;45.802;13.530;2022-10-17T00:56:03;5.18;;;4.60;;
22382;SDS011;11359;45.802;13.530;2022-10-17T00:58:29;5.97;;;4.30;;
22382;SDS011;11359;45.802;13.530;2022-10-17T01:00:55;4.50;;;4.10;;
22382;SDS011;11359;45.802;13.530;2022-10-17T01:03:21;4.90;;;4.20;;
22382;SDS011;11359;45.802;13.530;2022-10-17T01:05:47;5.00;;;4.50;;
22382;SDS011;11359;45.802;13.530;2022-10-17T01:08:12;5.20;;;4.53;;
22382;SDS011;11359;45.802;13.530;2022-10-17T01:24:21;4.70;;;4.20;;
22382;SDS011;11359;45.802;13.530;2022-10-17T01:32:44;4.50;;;4.10;;
22382;SDS011;11359;45.802;13.530;2022-10-17T01:35:22;3.80;;;3.33;;
22382;SDS011;11359;45.802;13.530;2022-10-17T01:38:17;3.90;;;3.50;;
22382;SDS011;11359;45.802;13.530;2022-10-17T01:41:22;3.53;;;3.22;;
22382;SDS011;11359;45.802;13.530;2022-10-17T01:43:50;4.03;;;3.63;;
22382;SDS011;11359;45.802;13.530;2022-10-17T01:48:58;4.40;;;3.88;;
22382;SDS011;11359;45.802;13.530;2022-10-17T01:51:29;4.18;;;3.63;;
22382;SDS011;11359;45.802;13.530;2022-10-17T01:56:50;4.10;;;3.70;;
22382;SDS011;11359;45.802;13.530;2022-10-17T01:59:23;5.90;;;4.80;;
22382;SDS011;11359;45.802;13.530;2022-10-17T02:01:53;4.43;;;3.78;;
22382;SDS011;11359;45.802;13.530;2022-10-17T02:04:22;4.63;;;3.92;;
22382;SDS011;11359;45.802;13.530;2022-10-17T02:06:49;4.88;;;4.38;;
22382;SDS011;11359;45.802;13.530;2022-10-17T02:09:18;6.93;;;5.95;;
22382;SDS011;11359;45.802;13.530;2022-10-17T02:11:51;8.43;;;7.10;;
22382;SDS011;11359;45.802;13.530;2022-10-17T02:20:24;9.98;;;8.43;;
22382;SDS011;11359;45.802;13.530;2022-10-17T02:23:07;7.88;;;7.07;;
22382;SDS011;11359;45.802;13.530;2022-10-17T02:30:46;6.28;;;5.60;;
22382;SDS011;11359;45.802;13.530;2022-10-17T02:33:27;5.70;;;5.20;;
22382;SDS011;11359;45.802;13.530;2022-10-17T02:36:02;4.80;;;4.30;;
22382;SDS011;11359;45.802;13.530;2022-10-17T02:38:34;4.88;;;4.40;;
22382;SDS011;11359;45.802;13.530;2022-10-17T02:41:00;4.85;;;4.35;;
22382;SDS011;11359;45.802;13.530;2022-10-17T02:43:26;4.57;;;4.15;;
22382;SDS011;11359;45.802;13.530;2022-10-17T02:45:52;4.07;;;3.67;;
22382;SDS011;11359;45.802;13.530;2022-10-17T02:51:12;5.00;;;4.30;;
22382;SDS011;11359;45.802;13.530;2022-10-17T02:56:19;4.25;;;3.85;;
22382;SDS011;11359;45.802;13.530;2022-10-17T02:58:47;4.38;;;3.67;;
22382;SDS011;11359;45.802;13.530;2022-10-17T03:01:17;3.72;;;3.42;;
22382;SDS011;11359;45.802;13.530;2022-10-17T03:03:43;4.32;;;3.92;;
22382;SDS011;11359;45.802;13.530;2022-10-17T03:06:09;4.00;;;3.53;;
22382;SDS011;11359;45.802;13.530;2022-10-17T03:08:35;4.07;;;3.67;;
22382;SDS011;11359;45.802;13.530;2022-10-17T03:11:00;3.70;;;3.35;;
22382;SDS011;11359;45.802;13.530;2022-10-17T03:13:27;4.97;;;3.92;;
22382;SDS011;11359;45.802;13.530;2022-10-17T03:15:54;3.72;;;3.35;;
22382;SDS011;11359;45.802;13.530;2022-10-17T03:18:21;3.63;;;3.20;;
22382;SDS011;11359;45.802;13.530;2022-10-17T03:20:47;3.95;;;3.53;;
22382;SDS011;11359;45.802;13.530;2022-10-17T03:23:13;3.70;;;3.40;;
22382;SDS011;11359;45.802;13.530;2022-10-17T03:25:39;4.82;;;4.30;;
22382;SDS011;11359;45.802;13.530;2022-10-17T03:28:05;6.80;;;5.63;;
22382;SDS011;11359;45.802;13.530;2022-10-17T03:30:31;8.80;;;7.80;;
22382;SDS011;11359;45.802;13.530;2022-10-17T03:32:57;7.20;;;6.35;;
22382;SDS011;11359;45.802;13.530;2022-10-17T03:35:23;6.18;;;5.57;;
22382;SDS011;11359;45.802;13.530;2022-10-17T03:37:50;5.95;;;5.32;;
22382;SDS011;11359;45.802;13.530;2022-10-17T03:40:15;5.22;;;4.72;;
22382;SDS011;11359;45.802;13.530;2022-10-17T03:42:41;5.10;;;4.60;;
22382;SDS011;11359;45.802;13.530;2022-10-17T03:45:07;4.53;;;4.13;;
22382;SDS011;11359;45.802;13.530;2022-10-17T03:47:33;5.10;;;4.60;;
22382;SDS011;11359;45.802;13.530;2022-10-17T03:49:59;4.53;;;3.92;;
22382;SDS011;11359;45.802;13.530;2022-10-17T03:52:25;4.72;;;4.22;;
22382;SDS011;11359;45.802;13.530;2022-10-17T03:54:50;4.93;;;4.40;;
22382;SDS011;11359;45.802;13.530;2022-10-17T03:57:17;4.63;;;4.13;;
22382;SDS011;11359;45.802;13.530;2022-10-17T03:59:43;4.53;;;4.10;;
22382;SDS011;11359;45.802;13.530;2022-10-17T04:02:08;4.80;;;4.30;;
22382;SDS011;11359;45.802;13.530;2022-10-17T04:04:34;4.68;;;4.10;;
22382;SDS011;11359;45.802;13.530;2022-10-17T04:07:00;5.00;;;4.40;;
22382;SDS011;11359;45.802;13.530;2022-10-17T04:09:26;6.30;;;5.15;;
22382;SDS011;11359;45.802;13.530;2022-10-17T04:11:51;4.90;;;4.40;;
22382;SDS011;11359;45.802;13.530;2022-10-17T04:14:17;4.35;;;3.90;;
22382;SDS011;11359;45.802;13.530;2022-10-17T04:16:43;4.35;;;3.78;;
22382;SDS011;11359;45.802;13.530;2022-10-17T04:19:09;4.20;;;3.80;;
22382;SDS011;11359;45.802;13.530;2022-10-17T04:21:37;4.40;;;4.00;;
22382;SDS011;11359;45.802;13.530;2022-10-17T04:24:03;4.25;;;3.85;;
22382;SDS011;11359;45.802;13.530;2022-10-17T04:26:29;4.35;;;3.95;;
22382;SDS011;11359;45.802;13.530;2022-10-17T04:28:54;4.05;;;3.65;;
22382;SDS011;11359;45.802;13.530;2022-10-17T04:31:20;4.07;;;3.67;;
22382;SDS011;11359;45.802;13.530;2022-10-17T04:33:46;5.00;;;4.50;;
22382;SDS011;11359;45.802;13.530;2022-10-17T04:36:14;4.20;;;3.80;;
22382;SDS011;11359;45.802;13.530;2022-10-17T04:38:42;4.45;;;4.05;;
22382;SDS011;11359;45.802;13.530;2022-10-17T04:41:12;5.07;;;4.60;;
22382;SDS011;11359;45.802;13.530;2022-10-17T04:43:39;5.30;;;4.30;;
22382;SDS011;11359;45.802;13.530;2022-10-17T04:46:06;4.63;;;4.15;;
22382;SDS011;11359;45.802;13.530;2022-10-17T04:48:36;4.63;;;4.15;;
22382;SDS011;11359;45.802;13.530;2022-10-17T04:51:03;4.90;;;4.20;;
22382;SDS011;11359;45.802;13.530;2022-10-17T04:53:36;3.83;;;3.42;;
22382;SDS011;11359;45.802;13.530;2022-10-17T04:58:36;4.80;;;3.75;;
22382;SDS011;11359;45.802;13.530;2022-10-17T05:01:05;5.13;;;4.57;;
22382;SDS011;11359;45.802;13.530;2022-10-17T05:03:32;8.02;;;7.22;;
22382;SDS011;11359;45.802;13.530;2022-10-17T05:06:02;7.88;;;6.82;;
22382;SDS011;11359;45.802;13.530;2022-10-17T05:08:32;6.77;;;6.10;;
22382;SDS011;11359;45.802;13.530;2022-10-17T05:13:09;5.80;;;5.20;;
22382;SDS011;11359;45.802;13.530;2022-10-17T05:15:36;5.82;;;5.22;;
22382;SDS011;11359;45.802;13.530;2022-10-17T05:18:02;5.90;;;5.30;;
22382;SDS011;11359;45.802;13.530;2022-10-17T05:20:29;4.93;;;4.43;;
22382;SDS011;11359;45.802;13.530;2022-10-17T05:22:57;6.15;;;5.32;;
22382;SDS011;11359;45.802;13.530;2022-10-17T05:25:23;5.93;;;5.20;;
22382;SDS011;11359;45.802;13.530;2022-10-17T05:27:49;5.20;;;4.70;;
22382;SDS011;11359;45.802;13.530;2022-10-17T05:30:14;5.45;;;4.78;;
22382;SDS011;11359;45.802;13.530;2022-10-17T05:32:40;4.68;;;4.28;;
22382;SDS011;11359;45.802;13.530;2022-10-17T05:35:06;4.90;;;4.40;;
22382;SDS011;11359;45.802;13.530;2022-10-17T05:37:32;4.65;;;4.18;;
22382;SDS011;11359;45.802;13.530;2022-10-17T05:39:57;5.40;;;4.60;;
22382;SDS011;11359;45.802;13.530;2022-10-17T05:42:23;4.80;;;4.30;;
22382;SDS011;11359;45.802;13.530;2022-10-17T05:44:49;4.63;;;4.22;;
22382;SDS011;11359;45.802;13.530;2022-10-17T05:47:14;4.85;;;4.35;;
22382;SDS011;11359;45.802;13.530;2022-10-17T05:49:40;7.95;;;6.82;;
22382;SDS011;11359;45.802;13.530;2022-10-17T05:52:06;6.93;;;6.15;;
22382;SDS011;11359;45.802;13.530;2022-10-17T05:54:31;7.68;;;6.65;;
22382;SDS011;11359;45.802;13.530;2022-10-17T05:56:57;6.18;;;5.50;;
22382;SDS011;11359;45.802;13.530;2022-10-17T05:59:24;5.90;;;5.30;;
22382;SDS011;11359;45.802;13.530;2022-10-17T06:01:50;5.72;;;5.05;;
22382;SDS011;11359;45.802;13.530;2022-10-17T06:04:16;5.28;;;4.78;;
22382;SDS011;11359;45.802;13.530;2022-10-17T06:06:42;5.32;;;4.82;;
22382;SDS011;11359;45.802;13.530;2022-10-17T06:09:07;4.75;;;4.22;;
22382;SDS011;11359;45.802;13.530;2022-10-17T06:11:34;5.00;;;4.50;;
22382;SDS011;11359;45.802;13.530;2022-10-17T06:14:00;4.70;;;4.05;;
22382;SDS011;11359;45.802;13.530;2022-10-17T06:16:26;4.35;;;3.95;;
22382;SDS011;11359;45.802;13.530;2022-10-17T06:18:51;4.90;;;4.22;;
22382;SDS011;11359;45.802;13.530;2022-10-17T06:21:21;4.43;;;4.00;;
22382;SDS011;11359;45.802;13.530;2022-10-17T06:23:48;3.90;;;3.50;;
22382;SDS011;11359;45.802;13.530;2022-10-17T06:26:14;3.83;;;3.35;;
22382;SDS011;11359;45.802;13.530;2022-10-17T06:28:40;3.80;;;3.40;;
22382;SDS011;11359;45.802;13.530;2022-10-17T06:31:10;4.10;;;3.70;;
22382;SDS011;11359;45.802;13.530;2022-10-17T06:33:37;3.65;;;3.28;;
22382;SDS011;11359;45.802;13.530;2022-10-17T06:36:04;3.60;;;3.13;;
22382;SDS011;11359;45.802;13.530;2022-10-17T06:38:48;3.10;;;2.80;;
22382;SDS011;11359;45.802;13.530;2022-10-17T06:41:15;3.70;;;3.20;;
22382;SDS011;11359;45.802;13.530;2022-10-17T06:43:43;3.33;;;2.90;;
22382;SDS011;11359;45.802;13.530;2022-10-17T06:46:10;2.65;;;2.45;;
22382;SDS011;11359;45.802;13.530;2022-10-17T06:48:37;3.03;;;2.72;;
22382;SDS011;11359;45.802;13.530;2022-10-17T06:51:03;2.60;;;2.40;;
22382;SDS011;11359;45.802;13.530;2022-10-17T06:53:31;3.22;;;2.70;;
22382;SDS011;11359;45.802;13.530;2022-10-17T06:55:58;3.45;;;2.85;;
22382;SDS011;11359;45.802;13.530;2022-10-17T06:58:29;2.88;;;2.50;;
22382;SDS011;11359;45.802;13.530;2022-10-17T07:01:06;2.90;;;2.58;;
22382;SDS011;11359;45.802;13.530;2022-10-17T07:03:36;2.92;;;2.63;;
22382;SDS011;11359;45.802;13.530;2022-10-17T07:06:02;2.40;;;2.17;;
22382;SDS011;11359;45.802;13.530;2022-10-17T07:08:28;2.38;;;2.13;;
22382;SDS011;11359;45.802;13.530;2022-10-17T07:10:54;2.35;;;2.15;;
22382;SDS011;11359;45.802;13.530;2022-10-17T07:13:20;2.22;;;1.75;;
22382;SDS011;11359;45.802;13.530;2022-10-17T07:15:46;2.20;;;2.00;;
22382;SDS011;11359;45.802;13.530;2022-10-17T07:18:11;2.15;;;1.95;;
22382;SDS011;11359;45.802;13.530;2022-10-17T07:20:37;2.42;;;2.00;;
22382;SDS011;11359;45.802;13.530;2022-10-17T07:23:04;2.08;;;1.80;;
22382;SDS011;11359;45.802;13.530;2022-10-17T07:25:29;2.35;;;2.15;;
22382;SDS011;11359;45.802;13.530;2022-10-17T07:27:55;2.20;;;2.00;;
22382;SDS011;11359;45.802;13.530;2022-10-17T07:30:21;1.88;;;1.67;;
22382;SDS011;11359;45.802;13.530;2022-10-17T07:32:47;2.00;;;1.80;;
22382;SDS011;11359;45.802;13.530;2022-10-17T07:35:13;1.90;;;1.73;;
22382;SDS011;11359;45.802;13.530;2022-10-17T07:37:39;1.95;;;1.75;;
22382;SDS011;11359;45.802;13.530;2022-10-17T07:40:05;2.00;;;1.80;;
22382;SDS011;11359;45.802;13.530;2022-10-17T07:42:33;1.90;;;1.58;;
22382;SDS011;11359;45.802;13.530;2022-10-17T07:45:01;1.58;;;1.48;;
22382;SDS011;11359;45.802;13.530;2022-10-17T07:47:27;2.10;;;1.85;;
22382;SDS011;11359;45.802;13.530;2022-10-17T07:49:55;2.25;;;2.00;;
22382;SDS011;11359;45.802;13.530;2022-10-17T07:52:21;2.40;;;2.08;;
22382;SDS011;11359;45.802;13.530;2022-10-17T07:54:47;2.90;;;2.60;;
22382;SDS011;11359;45.802;13.530;2022-10-17T07:57:13;4.93;;;4.43;;
22382;SDS011;11359;45.802;13.530;2022-10-17T07:59:38;6.93;;;5.63;;
22382;SDS011;11359;45.802;13.530;2022-10-17T08:02:04;7.68;;;6.72;;
22382;SDS011;11359;45.802;13.530;2022-10-17T08:04:32;10.60;;;9.50;;
22382;SDS011;11359;45.802;13.530;2022-10-17T08:07:00;10.18;;;9.18;;
22382;SDS011;11359;45.802;13.530;2022-10-17T08:09:26;8.82;;;7.93;;
22382;SDS011;11359;45.802;13.530;2022-10-17T08:11:51;8.65;;;7.70;;
22382;SDS011;11359;45.802;13.530;2022-10-17T08:14:18;11.13;;;10.02;;
22382;SDS011;11359;45.802;13.530;2022-10-17T08:16:43;10.77;;;9.68;;
22382;SDS011;11359;45.802;13.530;2022-10-17T08:19:09;9.38;;;8.43;;
22382;SDS011;11359;45.802;13.530;2022-10-17T08:21:35;11.60;;;10.40;;
22382;SDS011;11359;45.802;13.530;2022-10-17T08:24:01;12.13;;;10.85;;
22382;SDS011;11359;45.802;13.530;2022-10-17T08:26:28;13.90;;;12.15;;
22382;SDS011;11359;45.802;13.530;2022-10-17T08:28:54;10.75;;;9.75;;
22382;SDS011;11359;45.802;13.530;2022-10-17T08:31:20;10.43;;;9.43;;
22382;SDS011;11359;45.802;13.530;2022-10-17T08:33:47;10.10;;;9.00;;
22382;SDS011;11359;45.802;13.530;2022-10-17T08:36:14;9.77;;;8.77;;
22382;SDS011;11359;45.802;13.530;2022-10-17T08:38:42;8.60;;;7.70;;
22382;SDS011;11359;45.802;13.530;2022-10-17T08:44:04;14.35;;;12.65;;
22382;SDS011;11359;45.802;13.530;2022-10-17T08:46:52;10.95;;;9.85;;
22382;SDS011;11359;45.802;13.530;2022-10-17T08:50:05;15.85;;;13.48;;
22382;SDS011;11359;45.802;13.530;2022-10-17T08:52:28;13.35;;;11.95;;
22382;SDS011;11359;45.802;13.530;2022-10-17T08:55:03;11.90;;;10.68;;
22382;SDS011;11359;45.802;13.530;2022-10-17T08:57:37;11.35;;;10.25;;
22382;SDS011;11359;45.802;13.530;2022-10-17T09:00:03;13.40;;;12.10;;
22382;SDS011;11359;45.802;13.530;2022-10-17T09:16:18;16.03;;;14.30;;
22382;SDS011;11359;45.802;13.530;2022-10-17T09:18:59;14.18;;;12.77;;
22382;SDS011;11359;45.802;13.530;2022-10-17T09:24:03;12.23;;;11.02;;
22382;SDS011;11359;45.802;13.530;2022-10-17T09:26:37;11.47;;;10.27;;
22382;SDS011;11359;45.802;13.530;2022-10-17T09:29:04;10.30;;;9.30;;
22382;SDS011;11359;45.802;13.530;2022-10-17T09:31:54;11.20;;;10.10;;
22382;SDS011;11359;45.802;13.530;2022-10-17T09:34:28;12.77;;;11.48;;
22382;SDS011;11359;45.802;13.530;2022-10-17T09:36:56;11.88;;;10.68;;
22382;SDS011;11359;45.802;13.530;2022-10-17T09:39:24;17.65;;;15.75;;
22382;SDS011;11359;45.802;13.530;2022-10-17T09:41:52;16.48;;;14.77;;
22382;SDS011;11359;45.802;13.530;2022-10-17T09:44:23;14.60;;;13.10;;
22382;SDS011;11359;45.802;13.530;2022-10-17T09:49:38;12.60;;;11.40;;
22382;SDS011;11359;45.802;13.530;2022-10-17T09:52:13;13.63;;;12.32;;
22382;SDS011;11359;45.802;13.530;2022-10-17T09:54:48;13.45;;;12.05;;
22382;SDS011;11359;45.802;13.530;2022-10-17T09:57:17;14.55;;;13.05;;
22382;SDS011;11359;45.802;13.530;2022-10-17T09:59:54;13.88;;;12.48;;
22382;SDS011;11359;45.802;13.530;2022-10-17T10:02:23;12.00;;;10.80;;
22382;SDS011;11359;45.802;13.530;2022-10-17T10:07:16;13.85;;;12.45;;
22382;SDS011;11359;45.802;13.530;2022-10-17T10:09:45;13.93;;;12.52;;
22382;SDS011;11359;45.802;13.530;2022-10-17T10:12:16;12.75;;;11.27;;
22382;SDS011;11359;45.802;13.530;2022-10-17T10:14:42;11.63;;;10.52;;
22382;SDS011;11359;45.802;13.530;2022-10-17T10:20:05;11.40;;;10.30;;
22382;SDS011;11359;45.802;13.530;2022-10-17T10:28:27;16.50;;;14.80;;
22382;SDS011;11359;45.802;13.530;2022-10-17T10:30:55;15.43;;;13.93;;
22382;SDS011;11359;45.802;13.530;2022-10-17T10:33:25;14.00;;;12.48;;
22382;SDS011;11359;45.802;13.530;2022-10-17T10:36:03;11.68;;;10.57;;
22382;SDS011;11359;45.802;13.530;2022-10-17T10:38:31;9.48;;;8.57;;
22382;SDS011;11359;45.802;13.530;2022-10-17T10:41:02;7.93;;;7.22;;
22382;SDS011;11359;45.802;13.530;2022-10-17T10:43:45;7.32;;;6.63;;
22382;SDS011;11359;45.802;13.530;2022-10-17T10:46:20;6.35;;;5.75;;
22382;SDS011;11359;45.802;13.530;2022-10-17T10:48:55;5.30;;;4.85;;
22382;SDS011;11359;45.802;13.530;2022-10-17T10:51:34;4.70;;;4.30;;
22382;SDS011;11359;45.802;13.530;2022-10-17T10:54:27;4.85;;;4.45;;
22382;SDS011;11359;45.802;13.530;2022-10-17T10:56:59;4.70;;;4.30;;
22382;SDS011;11359;45.802;13.530;2022-10-17T11:02:26;4.05;;;3.65;;
22382;SDS011;11359;45.802;13.530;2022-10-17T11:06:05;3.35;;;2.90;;
22382;SDS011;11359;45.802;13.530;2022-10-17T11:08:02;3.42;;;3.13;;
22382;SDS011;11359;45.802;13.530;2022-10-17T11:10:40;3.28;;;2.97;;
22382;SDS011;11359;45.802;13.530;2022-10-17T11:13:15;3.42;;;3.13;;
22382;SDS011;11359;45.802;13.530;2022-10-17T11:18:34;2.80;;;2.50;;
22382;SDS011;11359;45.802;13.530;2022-10-17T11:21:33;2.80;;;2.60;;
22382;SDS011;11359;45.802;13.530;2022-10-17T11:24:06;3.60;;;3.30;;
22382;SDS011;11359;45.802;13.530;2022-10-17T11:26:54;4.30;;;3.60;;
22382;SDS011;11359;45.802;13.530;2022-10-17T11:29:26;3.83;;;3.45;;
22382;SDS011;11359;45.802;13.530;2022-10-17T11:31:54;3.30;;;3.00;;
22382;SDS011;11359;45.802;13.530;2022-10-17T11:34:26;3.15;;;2.85;;
22382;SDS011;11359;45.802;13.530;2022-10-17T11:36:58;3.50;;;3.20;;
22382;SDS011;11359;45.802;13.530;2022-10-17T11:41:57;4.32;;;3.88;;
22382;SDS011;11359;45.802;13.530;2022-10-17T11:47:11;3.50;;;3.20;;
22382;SDS011;11359;45.802;13.530;2022-10-17T11:49:45;4.28;;;3.88;;
22382;SDS011;11359;45.802;13.530;2022-10-17T11:52:29;4.25;;;3.85;;
22382;SDS011;11359;45.802;13.530;2022-10-17T11:55:18;4.22;;;3.83;;
22382;SDS011;11359;45.802;13.530;2022-10-17T12:02:58;3.85;;;3.45;;
22382;SDS011;11359;45.802;13.530;2022-10-17T12:05:36;5.28;;;4.78;;
22382;SDS011;11359;45.802;13.530;2022-10-17T12:13:45;4.85;;;4.38;;
22382;SDS011;11359;45.802;13.530;2022-10-17T12:18:47;5.95;;;5.45;;
22382;SDS011;11359;45.802;13.530;2022-10-17T12:21:52;5.55;;;5.05;;
22382;SDS011;11359;45.802;13.530;2022-10-17T12:24:43;5.75;;;5.18;;
22382;SDS011;11359;45.802;13.530;2022-10-17T12:30:02;4.85;;;4.45;;
22382;SDS011;11359;45.802;13.530;2022-10-17T12:32:29;5.03;;;4.53;;
22382;SDS011;11359;45.802;13.530;2022-10-17T12:34:55;4.95;;;4.55;;
22382;SDS011;11359;45.802;13.530;2022-10-17T12:37:58;4.53;;;4.13;;
22382;SDS011;11359;45.802;13.530;2022-10-17T12:43:00;4.35;;;3.95;;
22382;SDS011;11359;45.802;13.530;2022-10-17T12:45:47;4.10;;;3.70;;
22382;SDS011;11359;45.802;13.530;2022-10-17T12:51:13;4.30;;;3.90;;
22382;SDS011;11359;45.802;13.530;2022-10-17T12:56:39;3.55;;;3.25;;
22382;SDS011;11359;45.802;13.530;2022-10-17T12:59:14;3.60;;;3.30;;
22382;SDS011;11359;45.802;13.530;2022-10-17T13:01:48;3.78;;;3.47;;
22382;SDS011;11359;45.802;13.530;2022-10-17T13:04:17;3.33;;;3.03;;
22382;SDS011;11359;45.802;13.530;2022-10-17T13:06:47;3.42;;;3.13;;
22382;SDS011;11359;45.802;13.530;2022-10-17T13:09:31;3.28;;;2.97;;
22382;SDS011;11359;45.802;13.530;2022-10-17T13:12:02;3.55;;;3.25;;
22382;SDS011;11359;45.802;13.530;2022-10-17T13:14:31;2.90;;;2.70;;
22382;SDS011;11359;45.802;13.530;2022-10-17T13:17:02;2.92;;;2.67;;
22382;SDS011;11359;45.802;13.530;2022-10-17T13:19:30;3.20;;;2.90;;
22382;SDS011;11359;45.802;13.530;2022-10-17T13:22:20;3.10;;;2.80;;
22382;SDS011;11359;45.802;13.530;2022-10-17T13:24:48;3.45;;;3.15;;
22382;SDS011;11359;45.802;13.530;2022-10-17T13:27:28;3.25;;;2.95;;
22382;SDS011;11359;45.802;13.530;2022-10-17T13:29:56;3.80;;;3.45;;
22382;SDS011;11359;45.802;13.530;2022-10-17T13:32:24;3.92;;;3.58;;
22382;SDS011;11359;45.802;13.530;2022-10-17T13:35:07;4.30;;;3.60;;
22382;SDS011;11359;45.802;13.530;2022-10-17T13:37:35;3.03;;;2.80;;
22382;SDS011;11359;45.802;13.530;2022-10-17T13:40:03;3.50;;;3.20;;
22382;SDS011;11359;45.802;13.530;2022-10-17T13:42:34;3.55;;;3.25;;
22382;SDS011;11359;45.802;13.530;2022-10-17T13:45:02;3.60;;;3.30;;
22382;SDS011;11359;45.802;13.530;2022-10-17T13:47:34;3.78;;;3.47;;
22382;SDS011;11359;45.802;13.530;2022-10-17T13:50:03;3.53;;;3.22;;
22382;SDS011;11359;45.802;13.530;2022-10-17T13:52:29;3.67;;;3.38;;
22382;SDS011;11359;45.802;13.530;2022-10-17T13:55:04;3.60;;;3.30;;
22382;SDS011;11359;45.802;13.530;2022-10-17T13:57:39;4.22;;;3.83;;
22382;SDS011;11359;45.802;13.530;2022-10-17T14:00:06;4.30;;;3.90;;
22382;SDS011;11359;45.802;13.530;2022-10-17T14:02:45;4.53;;;4.13;;
22382;SDS011;11359;45.802;13.530;2022-10-17T14:07:50;4.55;;;4.15;;
22382;SDS011;11359;45.802;13.530;2022-10-17T14:10:21;5.55;;;5.05;;
22382;SDS011;11359;45.802;13.530;2022-10-17T14:12:50;6.97;;;6.28;;
22382;SDS011;11359;45.802;13.530;2022-10-17T14:15:17;6.25;;;5.65;;
22382;SDS011;11359;45.802;13.530;2022-10-17T14:17:45;6.20;;;5.60;;
22382;SDS011;11359;45.802;13.530;2022-10-17T14:20:18;5.65;;;5.10;;
22382;SDS011;11359;45.802;13.530;2022-10-17T14:22:46;5.57;;;5.00;;
22382;SDS011;11359;45.802;13.530;2022-10-17T14:25:25;6.40;;;5.80;;
22382;SDS011;11359;45.802;13.530;2022-10-17T14:28:00;6.60;;;5.63;;
22382;SDS011;11359;45.802;13.530;2022-10-17T14:30:33;5.60;;;5.10;;
22382;SDS011;11359;45.802;13.530;2022-10-17T14:33:22;5.63;;;5.05;;
22382;SDS011;11359;45.802;13.530;2022-10-17T14:35:48;5.85;;;5.25;;
22382;SDS011;11359;45.802;13.530;2022-10-17T14:38:15;5.40;;;4.90;;
22382;SDS011;11359;45.802;13.530;2022-10-17T14:40:49;5.60;;;5.10;;
22382;SDS011;11359;45.802;13.530;2022-10-17T14:43:27;5.15;;;4.65;;
22382;SDS011;11359;45.802;13.530;2022-10-17T14:46:00;4.53;;;4.13;;
22382;SDS011;11359;45.802;13.530;2022-10-17T14:48:27;5.40;;;4.90;;
22382;SDS011;11359;45.802;13.530;2022-10-17T14:51:09;5.65;;;4.78;;
22382;SDS011;11359;45.802;13.530;2022-10-17T14:53:37;5.60;;;5.00;;
22382;SDS011;11359;45.802;13.530;2022-10-17T14:56:17;4.78;;;4.38;;
22382;SDS011;11359;45.802;13.530;2022-10-17T14:58:49;4.90;;;4.28;;
22382;SDS011;11359;45.802;13.530;2022-10-17T15:01:16;4.50;;;4.10;;
22382;SDS011;11359;45.802;13.530;2022-10-17T15:03:41;4.13;;;3.72;;
22382;SDS011;11359;45.802;13.530;2022-10-17T15:06:19;4.22;;;3.83;;
22382;SDS011;11359;45.802;13.530;2022-10-17T15:08:46;3.92;;;3.63;;
22382;SDS011;11359;45.802;13.530;2022-10-17T15:11:12;4.90;;;4.47;;
22382;SDS011;11359;45.802;13.530;2022-10-17T15:13:38;4.20;;;3.78;;
22382;SDS011;11359;45.802;13.530;2022-10-17T15:18:49;4.32;;;3.92;;
22382;SDS011;11359;45.802;13.530;2022-10-17T15:21:16;3.78;;;3.47;;
22382;SDS011;11359;45.802;13.530;2022-10-17T15:23:43;3.60;;;3.30;;
22382;SDS011;11359;45.802;13.530;2022-10-17T15:26:17;3.88;;;3.53;;
22382;SDS011;11359;45.802;13.530;2022-10-17T15:28:45;3.60;;;3.30;;
22382;SDS011;11359;45.802;13.530;2022-10-17T15:31:12;4.20;;;3.80;;
22382;SDS011;11359;45.802;13.530;2022-10-17T15:33:40;3.63;;;3.33;;
22382;SDS011;11359;45.802;13.530;2022-10-17T15:38:53;4.35;;;3.60;;
22382;SDS011;11359;45.802;13.530;2022-10-17T15:41:21;4.07;;;3.58;;
22382;SDS011;11359;45.802;13.530;2022-10-17T15:43:49;3.65;;;3.35;;
22382;SDS011;11359;45.802;13.530;2022-10-17T15:46:19;3.35;;;3.05;;
22382;SDS011;11359;45.802;13.530;2022-10-17T15:48:47;4.63;;;4.10;;
22382;SDS011;11359;45.802;13.530;2022-10-17T15:51:13;4.53;;;4.05;;
22382;SDS011;11359;45.802;13.530;2022-10-17T15:53:39;4.40;;;3.92;;
22382;SDS011;11359;45.802;13.530;2022-10-17T15:56:05;4.68;;;4.18;;
22382;SDS011;11359;45.802;13.530;2022-10-17T15:58:36;4.40;;;4.00;;
22382;SDS011;11359;45.802;13.530;2022-10-17T16:01:04;4.88;;;4.18;;
22382;SDS011;11359;45.802;13.530;2022-10-17T16:03:31;5.13;;;4.63;;
22382;SDS011;11359;45.802;13.530;2022-10-17T16:05:57;5.10;;;3.90;;
22382;SDS011;11359;45.802;13.530;2022-10-17T16:08:23;4.93;;;4.43;;
22382;SDS011;11359;45.802;13.530;2022-10-17T16:10:49;4.75;;;4.03;;
22382;SDS011;11359;45.802;13.530;2022-10-17T16:13:18;4.80;;;4.30;;
22382;SDS011;11359;45.802;13.530;2022-10-17T16:15:46;4.10;;;3.70;;
22382;SDS011;11359;45.802;13.530;2022-10-17T16:18:13;4.10;;;3.67;;
22382;SDS011;11359;45.802;13.530;2022-10-17T16:20:39;4.15;;;3.75;;
22382;SDS011;11359;45.802;13.530;2022-10-17T16:23:05;4.03;;;3.63;;
22382;SDS011;11359;45.802;13.530;2022-10-17T16:25:32;4.55;;;4.03;;
22382;SDS011;11359;45.802;13.530;2022-10-17T16:27:58;4.05;;;3.65;;
22382;SDS011;11359;45.802;13.530;2022-10-17T16:30:26;4.00;;;3.47;;
22382;SDS011;11359;45.802;13.530;2022-10-17T16:32:53;4.35;;;3.90;;
22382;SDS011;11359;45.802;13.530;2022-10-17T16:35:26;3.60;;;3.30;;
22382;SDS011;11359;45.802;13.530;2022-10-17T16:37:53;3.90;;;3.50;;
22382;SDS011;11359;45.802;13.530;2022-10-17T16:40:20;4.07;;;3.67;;
22382;SDS011;11359;45.802;13.530;2022-10-17T16:42:46;3.70;;;3.40;;
22382;SDS011;11359;45.802;13.530;2022-10-17T16:45:19;4.40;;;4.00;;
22382;SDS011;11359;45.802;13.530;2022-10-17T16:47:46;4.80;;;4.30;;
22382;SDS011;11359;45.802;13.530;2022-10-17T16:50:12;5.28;;;4.78;;